createdAt,value
2018-12-31T00:00:52.818Z,99744.84
2018-12-31T00:03:34.003Z,99747.71
2018-12-31T00:06:06.131Z,99765.11
2018-12-31T00:08:38.700Z,99763.85
2018-12-31T00:11:13.697Z,99772.19
2018-12-31T00:13:45.670Z,99721.73
2018-12-31T00:16:19.973Z,99766.31
2018-12-31T00:18:53.847Z,99775.38
2018-12-31T00:21:26.282Z,99766.56
2018-12-31T00:23:59.640Z,99771.28
2018-12-31T00:26:31.854Z,99777.72
2018-12-31T00:29:03.511Z,99774.26
2018-12-31T00:31:34.828Z,99782.26
2018-12-31T00:34:06.367Z,99778.61
2018-12-31T00:36:38.866Z,99778.78
2018-12-31T00:39:12.801Z,99783.14
2018-12-31T00:41:45.600Z,99784.22
2018-12-31T00:44:16.877Z,99779.87
2018-12-31T00:46:49.782Z,99784.84
2018-12-31T00:49:22.708Z,99786.28
2018-12-31T00:51:54.534Z,99788.52
2018-12-31T00:54:28.888Z,99794.69
2018-12-31T00:57:01.717Z,99802.77
2018-12-31T00:59:37.240Z,99800.19
2018-12-31T01:02:09.821Z,99797.91
2018-12-31T01:04:42.766Z,99801.52
2018-12-31T01:07:14.124Z,99798.36
2018-12-31T01:09:47.880Z,99791.48
2018-12-31T01:12:19.548Z,99789.90
2018-12-31T01:14:51.833Z,99798.23
2018-12-31T01:17:25.248Z,99772.11
2018-12-31T01:19:58.729Z,99780.61
2018-12-31T01:22:31.803Z,99783.91
2018-12-31T01:25:03.893Z,99779.04
2018-12-31T01:27:35.972Z,99787.06
2018-12-31T01:30:08.120Z,99773.23
2018-12-31T01:32:39.937Z,99781.06
2018-12-31T01:35:13.868Z,99729.92
2018-12-31T01:37:46.783Z,99787.51
2018-12-31T01:40:21.440Z,99787.77
2018-12-31T01:42:53.923Z,99785.28
2018-12-31T01:45:26.068Z,99783.14
2018-12-31T01:47:59.982Z,99790.07
2018-12-31T01:50:32.154Z,99783.64
2018-12-31T01:53:05.903Z,99793.23
2018-12-31T01:55:39.891Z,99808.56
2018-12-31T01:58:12.907Z,99805.98
2018-12-31T02:00:44.302Z,99816.66
2018-12-31T02:03:16.931Z,99819.55
2018-12-31T02:05:48.911Z,99823.66
2018-12-31T02:08:20.240Z,99827.17
2018-12-31T02:10:53.076Z,99819.59
2018-12-31T02:13:27.093Z,99828.05
2018-12-31T02:16:00.024Z,99830.53
2018-12-31T02:18:31.295Z,99825.23
2018-12-31T02:21:05.450Z,99821.99
2018-12-31T02:23:39.081Z,99817.53
2018-12-31T02:26:13.655Z,99819.28
2018-12-31T02:28:46.115Z,99824.58
2018-12-31T02:31:19.042Z,99825.73
2018-12-31T02:33:53.255Z,99819.23
2018-12-31T02:36:27.671Z,99818.54
2018-12-31T02:39:00.125Z,99819.53
2018-12-31T02:41:34.011Z,99818.70
2018-12-31T02:44:07.128Z,99821.39
2018-12-31T02:46:38.378Z,99818.34
2018-12-31T02:49:11.384Z,99812.04
2018-12-31T02:51:45.726Z,99805.22
2018-12-31T02:54:18.955Z,99805.66
2018-12-31T02:56:52.213Z,99809.64
2018-12-31T02:59:27.870Z,99809.19
2018-12-31T03:01:59.163Z,99806.78
2018-12-31T03:04:31.207Z,99800.30
2018-12-31T03:07:04.270Z,99802.20
2018-12-31T03:09:37.341Z,99809.97
2018-12-31T03:12:08.590Z,99805.22
2018-12-31T03:14:42.315Z,99804.97
2018-12-31T03:17:14.866Z,99790.52
2018-12-31T03:19:46.231Z,99804.13
2018-12-31T03:22:19.902Z,99799.46
2018-12-31T03:24:51.165Z,99801.32
2018-12-31T03:27:23.242Z,99803.97
2018-12-31T03:29:55.250Z,99802.56
2018-12-31T03:32:26.527Z,99811.01
2018-12-31T03:34:57.916Z,99820.23
2018-12-31T03:37:29.336Z,99824.73
2018-12-31T03:40:01.419Z,99820.27
2018-12-31T03:42:35.235Z,99818.19
2018-12-31T03:45:08.640Z,99810.33
2018-12-31T03:47:42.002Z,99808.20
2018-12-31T03:50:13.407Z,99804.30
2018-12-31T03:52:47.476Z,99794.45
2018-12-31T03:55:19.505Z,99805.11
2018-12-31T03:57:53.391Z,99799.48
2018-12-31T04:00:25.514Z,99808.48
2018-12-31T04:02:57.583Z,99802.50
2018-12-31T04:05:31.521Z,99806.10
2018-12-31T04:08:04.511Z,99805.31
2018-12-31T04:10:37.463Z,99809.45
2018-12-31T04:13:09.354Z,99817.60
2018-12-31T04:15:42.429Z,99819.11
2018-12-31T04:18:13.709Z,99817.87
2018-12-31T04:20:46.557Z,99818.49
2018-12-31T04:23:19.962Z,99819.86
2018-12-31T04:25:53.468Z,99813.03
2018-12-31T04:28:26.561Z,99823.99
2018-12-31T04:30:58.918Z,99817.13
2018-12-31T04:33:30.204Z,99823.05
2018-12-31T04:36:03.777Z,99823.16
2018-12-31T04:38:37.874Z,99828.20
2018-12-31T04:41:10.857Z,99831.19
2018-12-31T04:43:44.573Z,99847.13
2018-12-31T04:46:17.055Z,99845.17
2018-12-31T04:48:48.598Z,99842.31
2018-12-31T04:51:20.065Z,99845.03
2018-12-31T04:53:53.720Z,99848.67
2018-12-31T04:56:26.765Z,99853.81
2018-12-31T04:59:00.742Z,99852.86
2018-12-31T05:01:32.770Z,99851.94
2018-12-31T05:04:04.939Z,99855.29
2018-12-31T05:06:38.544Z,99856.87
2018-12-31T05:09:11.785Z,99856.96
2018-12-31T05:11:46.040Z,99855.80
2018-12-31T05:14:18.964Z,99852.60
2018-12-31T05:16:52.942Z,99861.21
2018-12-31T05:19:26.798Z,99869.16
2018-12-31T05:21:59.912Z,99867.66
2018-12-31T05:24:33.776Z,99872.72
2018-12-31T05:27:07.955Z,99874.78
2018-12-31T05:29:43.478Z,99876.83
2018-12-31T05:32:14.852Z,99885.70
2018-12-31T05:34:46.104Z,99893.11
2018-12-31T05:37:20.032Z,99894.04
2018-12-31T05:39:52.905Z,99892.58
2018-12-31T05:42:26.040Z,99891.36
2018-12-31T05:45:00.143Z,99891.62
2018-12-31T05:47:32.039Z,99893.94
2018-12-31T05:50:04.122Z,99892.91
2018-12-31T05:52:36.661Z,99893.21
2018-12-31T05:55:10.046Z,99891.30
2018-12-31T05:57:44.112Z,99895.09
2018-12-31T06:00:17.064Z,99893.14
2018-12-31T06:02:50.766Z,99895.46
2018-12-31T06:05:23.116Z,99896.52
2018-12-31T06:07:55.195Z,99908.23
2018-12-31T06:10:29.022Z,99914.41
2018-12-31T06:13:02.045Z,99912.77
2018-12-31T06:15:33.328Z,99903.63
2018-12-31T06:18:07.101Z,99923.28
2018-12-31T06:20:40.034Z,99923.34
2018-12-31T06:23:14.067Z,99934.30
2018-12-31T06:25:49.752Z,99932.28
2018-12-31T06:28:23.163Z,99941.59
2018-12-31T06:30:55.314Z,99947.77
2018-12-31T06:33:28.225Z,99945.78
2018-12-31T06:36:01.391Z,99953.45
2018-12-31T06:38:33.415Z,99950.86
2018-12-31T06:41:07.314Z,99952.91
2018-12-31T06:43:39.112Z,99957.50
2018-12-31T06:46:11.308Z,99953.23
2018-12-31T06:48:45.150Z,99950.26
2018-12-31T06:51:19.141Z,99954.91
2018-12-31T06:53:52.964Z,99945.82
2018-12-31T06:56:26.372Z,99942.32
2018-12-31T06:59:00.391Z,99957.28
2018-12-31T07:01:33.269Z,99947.99
2018-12-31T07:04:07.394Z,99952.27
2018-12-31T07:06:40.909Z,99958.84
2018-12-31T07:09:12.378Z,99962.77
2018-12-31T07:11:45.383Z,99974.54
2018-12-31T07:14:18.390Z,99984.16
2018-12-31T07:16:52.329Z,99982.64
2018-12-31T07:19:26.562Z,99978.04
2018-12-31T07:21:59.277Z,99975.72
2018-12-31T07:24:32.418Z,99976.03
2018-12-31T07:27:08.261Z,99978.40
2018-12-31T07:29:42.359Z,99967.78
2018-12-31T07:32:15.493Z,99983.11
2018-12-31T07:34:47.330Z,99985.92
2018-12-31T07:37:20.081Z,99974.67
2018-12-31T07:39:51.751Z,99971.53
2018-12-31T07:42:23.507Z,99977.59
2018-12-31T07:44:56.494Z,99909.17
2018-12-31T07:47:29.406Z,99964.41
2018-12-31T07:50:00.770Z,99980.43
2018-12-31T07:52:34.470Z,99977.98
2018-12-31T07:55:05.781Z,99970.17
2018-12-31T07:57:39.181Z,99974.67
2018-12-31T08:00:14.117Z,99988.06
2018-12-31T08:02:46.679Z,99990.33
2018-12-31T08:05:20.173Z,99986.52
2018-12-31T08:07:52.664Z,99983.05
2018-12-31T08:10:26.561Z,99986.92
2018-12-31T08:12:58.102Z,99985.54
2018-12-31T08:15:31.647Z,99990.53
2018-12-31T08:18:03.763Z,99993.09
2018-12-31T08:20:35.671Z,99991.27
2018-12-31T08:23:07.693Z,99999.61
2018-12-31T08:25:40.726Z,99994.28
2018-12-31T08:28:12.097Z,100007.53
2018-12-31T08:30:43.894Z,100009.75
2018-12-31T08:33:19.385Z,100007.06
2018-12-31T08:35:51.776Z,100006.41
2018-12-31T08:38:23.993Z,99993.13
2018-12-31T08:40:55.816Z,100005.21
2018-12-31T08:43:32.102Z,100000.01
2018-12-31T08:46:03.836Z,100010.84
2018-12-31T08:48:36.759Z,100007.13
2018-12-31T08:51:10.626Z,100008.31
2018-12-31T08:53:44.734Z,100018.09
2018-12-31T08:56:17.690Z,100017.86
2018-12-31T08:58:51.752Z,100022.16
2018-12-31T09:01:25.548Z,100030.51
2018-12-31T09:03:56.844Z,100031.38
2018-12-31T09:06:29.753Z,100029.68
2018-12-31T09:09:05.626Z,100031.96
2018-12-31T09:11:38.042Z,100030.97
2018-12-31T09:14:11.869Z,100032.33
2018-12-31T09:16:44.862Z,100025.91
2018-12-31T09:19:16.159Z,100028.42
2018-12-31T09:21:49.813Z,100028.09
2018-12-31T09:24:21.120Z,100032.13
2018-12-31T09:26:54.039Z,100031.77
2018-12-31T09:29:26.926Z,100050.55
2018-12-31T09:35:35.005Z,100038.56
2018-12-31T09:38:08.855Z,100037.96
2018-12-31T09:40:42.134Z,100045.08
2018-12-31T09:43:16.016Z,100047.83
2018-12-31T09:45:49.073Z,100044.77
2018-12-31T09:48:20.446Z,100045.83
2018-12-31T09:50:54.159Z,100052.97
2018-12-31T09:53:27.232Z,100054.02
2018-12-31T09:56:01.165Z,100047.77
2018-12-31T09:58:36.387Z,100045.78
2018-12-31T10:01:09.903Z,100042.83
2018-12-31T10:03:44.024Z,100039.55
2018-12-31T10:06:17.722Z,100037.53
2018-12-31T10:08:50.009Z,100036.54
2018-12-31T10:11:24.207Z,100027.11
2018-12-31T10:13:56.998Z,100022.58
2018-12-31T10:16:30.533Z,100016.56
2018-12-31T10:19:02.566Z,100023.21
2018-12-31T10:21:40.750Z,100022.52
2018-12-31T10:24:10.782Z,100022.52
2018-12-31T10:26:42.121Z,100026.19
2018-12-31T10:29:15.288Z,100026.19
2018-12-31T10:31:49.167Z,100013.19
2018-12-31T10:34:20.636Z,100010.34
2018-12-31T10:36:54.266Z,100013.39
2018-12-31T10:39:28.202Z,100001.80
2018-12-31T10:41:59.804Z,100003.39
2018-12-31T10:44:32.235Z,100003.22
2018-12-31T10:47:04.208Z,100001.30
2018-12-31T10:49:37.175Z,99998.91
2018-12-31T10:52:10.394Z,99993.11
2018-12-31T10:54:41.773Z,99995.52
2018-12-31T10:57:15.324Z,99998.06
2018-12-31T10:59:47.217Z,99988.13
2018-12-31T11:02:18.521Z,99988.97
2018-12-31T11:04:50.058Z,99994.02
2018-12-31T11:07:25.908Z,99993.76
2018-12-31T11:09:59.392Z,99989.16
2018-12-31T11:12:31.489Z,99985.31
2018-12-31T11:15:05.462Z,99977.16
2018-12-31T11:17:39.729Z,99975.32
2018-12-31T11:20:13.784Z,99975.89
2018-12-31T11:22:46.401Z,99971.71
2018-12-31T11:25:18.525Z,99972.16
2018-12-31T11:27:51.228Z,99967.89
2018-12-31T11:30:24.605Z,99967.65
2018-12-31T11:32:58.674Z,99962.92
2018-12-31T11:35:31.466Z,99968.95
2018-12-31T11:38:05.159Z,99968.33
2018-12-31T11:40:36.551Z,99965.28
2018-12-31T11:43:10.355Z,99966.28
2018-12-31T11:45:43.610Z,99970.64
2018-12-31T11:48:17.749Z,99965.90
2018-12-31T11:50:50.412Z,99956.73
2018-12-31T11:53:21.673Z,99959.20
2018-12-31T11:55:53.646Z,99954.53
2018-12-31T11:58:25.494Z,99953.53
2018-12-31T12:00:59.832Z,99950.95
2018-12-31T12:03:34.559Z,99948.23
2018-12-31T12:06:09.793Z,99951.45
2018-12-31T12:08:41.958Z,99958.61
2018-12-31T12:11:15.406Z,99954.23
2018-12-31T12:13:46.789Z,99955.54
2018-12-31T12:16:19.740Z,99957.30
2018-12-31T12:18:53.829Z,99958.72
2018-12-31T12:21:27.874Z,99964.59
2018-12-31T12:24:00.750Z,99961.81
2018-12-31T12:26:32.516Z,99961.02
2018-12-31T12:29:05.901Z,99961.67
2018-12-31T12:31:38.742Z,99967.11
2018-12-31T12:34:10.082Z,99955.29
2018-12-31T12:36:42.763Z,99961.61
2018-12-31T12:39:16.746Z,99968.63
2018-12-31T12:41:52.530Z,99963.33
2018-12-31T12:44:28.511Z,99960.62
2018-12-31T12:47:00.924Z,99960.61
2018-12-31T12:49:32.863Z,99960.16
2018-12-31T12:52:04.934Z,99962.77
2018-12-31T12:54:40.533Z,99966.77
2018-12-31T12:57:12.818Z,99967.11
2018-12-31T12:59:45.887Z,99966.48
2018-12-31T13:02:17.164Z,99969.88
2018-12-31T13:04:53.263Z,99969.45
2018-12-31T13:07:27.174Z,99973.00
2018-12-31T13:10:00.918Z,99978.30
2018-12-31T13:12:32.869Z,99981.05
2018-12-31T13:15:06.757Z,99976.73
2018-12-31T13:17:39.785Z,99979.19
2018-12-31T13:20:13.883Z,99976.73
2018-12-31T13:22:46.985Z,99977.27
2018-12-31T13:25:20.868Z,99974.02
2018-12-31T13:27:54.882Z,99980.98
2018-12-31T13:30:26.293Z,99981.34
2018-12-31T13:33:03.536Z,99981.23
2018-12-31T13:35:38.011Z,99990.31
2018-12-31T13:38:10.136Z,99984.36
2018-12-31T13:40:41.407Z,99986.34
2018-12-31T13:43:14.100Z,99982.73
2018-12-31T13:45:47.925Z,99980.71
2018-12-31T13:48:20.646Z,99981.67
2018-12-31T13:50:52.302Z,99978.22
2018-12-31T13:53:37.793Z,99982.77
2018-12-31T13:56:13.022Z,99976.77
2018-12-31T13:58:45.185Z,99977.83
2018-12-31T14:01:18.871Z,99978.53
2018-12-31T14:03:52.377Z,99977.56
2018-12-31T14:06:26.237Z,99973.92
2018-12-31T14:08:59.311Z,99980.84
2018-12-31T14:11:35.210Z,99982.86
2018-12-31T14:14:15.663Z,99976.11
2018-12-31T14:16:49.802Z,99984.55
2018-12-31T14:19:21.247Z,99985.51
2018-12-31T14:21:54.275Z,99990.20
2018-12-31T14:24:28.357Z,99995.47
2018-12-31T14:27:01.258Z,99990.07
2018-12-31T14:29:35.449Z,99985.86
2018-12-31T14:32:09.333Z,99986.52
2018-12-31T14:34:41.318Z,99995.81
2018-12-31T14:37:13.535Z,99989.62
2018-12-31T14:39:46.931Z,99994.38
2018-12-31T14:42:20.693Z,99992.92
2018-12-31T14:44:53.609Z,100007.34
2018-12-31T14:47:27.386Z,100003.70
2018-12-31T14:50:00.353Z,100004.42
2018-12-31T14:52:34.368Z,100008.72
2018-12-31T14:55:07.568Z,100005.77
2018-12-31T14:57:39.158Z,100010.28
2018-12-31T15:00:14.222Z,100012.44
2018-12-31T15:02:48.600Z,100011.83
2018-12-31T15:05:20.785Z,100014.19
2018-12-31T15:07:52.490Z,100011.33
2018-12-31T15:10:24.710Z,100028.05
2018-12-31T15:12:56.583Z,100025.69
2018-12-31T15:15:30.560Z,100024.06
2018-12-31T15:18:03.710Z,100021.30
2018-12-31T15:20:37.576Z,100035.30
2018-12-31T15:23:12.066Z,100033.25
2018-12-31T15:25:45.189Z,100028.52
2018-12-31T15:28:18.668Z,100028.97
2018-12-31T15:30:52.489Z,100030.30
2018-12-31T15:33:26.293Z,100028.45
2018-12-31T15:35:59.525Z,100033.25
2018-12-31T15:38:35.132Z,100029.52
2018-12-31T15:41:07.729Z,100036.62
2018-12-31T15:43:40.699Z,100035.77
2018-12-31T15:46:20.118Z,100033.27
2018-12-31T15:48:48.718Z,100038.05
2018-12-31T15:51:20.961Z,100038.50
2018-12-31T15:53:53.980Z,100043.50
2018-12-31T15:56:29.391Z,100033.90
2018-12-31T15:59:02.850Z,100039.88
2018-12-31T16:01:37.126Z,100046.54
2018-12-31T16:04:09.860Z,100045.03
2018-12-31T16:06:44.092Z,100033.13
